sensor_id;sensor_type;location;lat;lon;timestamp;pressure;altitude;pressure_sealevel;temperature;humidity
7990;BME280;4040;42.848;23.034;2023-08-01T00:03:33;94619.53;;;16.76;100.00
7990;BME280;4040;42.848;23.034;2023-08-01T00:13:45;94613.78;;;16.74;100.00
7990;BME280;4040;42.848;23.034;2023-08-01T00:19:34;94618.53;;;16.61;100.00
7990;BME280;4040;42.848;23.034;2023-08-01T00:25:23;94620.94;;;16.59;100.00
7990;BME280;4040;42.848;23.034;2023-08-01T00:31:13;94608.84;;;16.60;100.00
7990;BME280;4040;42.848;23.034;2023-08-01T00:37:02;94602.66;;;16.60;100.00
7990;BME280;4040;42.848;23.034;2023-08-01T00:42:51;94611.88;;;16.62;100.00
7990;BME280;4040;42.848;23.034;2023-08-01T00:48:45;94605.81;;;16.58;100.00
7990;BME280;4040;42.848;23.034;2023-08-01T00:54:35;94592.41;;;16.64;100.00
7990;BME280;4040;42.848;23.034;2023-08-01T01:00:24;94592.81;;;16.53;100.00
7990;BME280;4040;42.848;23.034;2023-08-01T01:06:19;94591.03;;;16.59;100.00
7990;BME280;4040;42.848;23.034;2023-08-01T01:16:30;94583.13;;;16.52;100.00
7990;BME280;4040;42.848;23.034;2023-08-01T01:22:21;94577.00;;;16.39;100.00
7990;BME280;4040;42.848;23.034;2023-08-01T01:28:10;94571.16;;;16.28;100.00
7990;BME280;4040;42.848;23.034;2023-08-01T01:33:59;94579.75;;;16.05;100.00
7990;BME280;4040;42.848;23.034;2023-08-01T01:39:49;94568.75;;;15.87;100.00
7990;BME280;4040;42.848;23.034;2023-08-01T01:45:38;94578.56;;;15.72;100.00
7990;BME280;4040;42.848;23.034;2023-08-01T01:51:27;94568.63;;;15.57;100.00
7990;BME280;4040;42.848;23.034;2023-08-01T01:57:17;94570.81;;;15.49;100.00
7990;BME280;4040;42.848;23.034;2023-08-01T02:03:06;94579.72;;;15.37;100.00
7990;BME280;4040;42.848;23.034;2023-08-01T02:08:57;94580.78;;;15.27;100.00
7990;BME280;4040;42.848;23.034;2023-08-01T02:19:09;94572.38;;;15.13;100.00
7990;BME280;4040;42.848;23.034;2023-08-01T02:24:57;94574.97;;;15.04;100.00
7990;BME280;4040;42.848;23.034;2023-08-01T02:30:46;94576.47;;;14.93;100.00
7990;BME280;4040;42.848;23.034;2023-08-01T02:36:36;94572.56;;;14.94;100.00
7990;BME280;4040;42.848;23.034;2023-08-01T02:42:27;94586.88;;;14.82;100.00
7990;BME280;4040;42.848;23.034;2023-08-01T02:48:16;94588.28;;;14.61;100.00
7990;BME280;4040;42.848;23.034;2023-08-01T02:54:06;94594.19;;;14.44;100.00
7990;BME280;4040;42.848;23.034;2023-08-01T02:59:54;94584.31;;;14.37;100.00
7990;BME280;4040;42.848;23.034;2023-08-01T03:05:43;94586.50;;;14.42;100.00
7990;BME280;4040;42.848;23.034;2023-08-01T03:11:33;94600.84;;;14.55;100.00
7990;BME280;4040;42.848;23.034;2023-08-01T03:21:43;94605.84;;;14.57;100.00
7990;BME280;4040;42.848;23.034;2023-08-01T03:27:34;94596.63;;;14.54;100.00
7990;BME280;4040;42.848;23.034;2023-08-01T03:33:22;94594.41;;;14.49;100.00
7990;BME280;4040;42.848;23.034;2023-08-01T03:39:11;94598.16;;;14.68;100.00
7990;BME280;4040;42.848;23.034;2023-08-01T03:45:01;94596.56;;;14.42;100.00
7990;BME280;4040;42.848;23.034;2023-08-01T03:50:50;94588.22;;;14.08;100.00
7990;BME280;4040;42.848;23.034;2023-08-01T03:56:39;94606.38;;;13.95;100.00
7990;BME280;4040;42.848;23.034;2023-08-01T04:02:31;94614.28;;;14.18;100.00
7990;BME280;4040;42.848;23.034;2023-08-01T04:08:20;94608.78;;;14.34;100.00
7990;BME280;4040;42.848;23.034;2023-08-01T04:14:09;94612.78;;;14.58;100.00
7990;BME280;4040;42.848;23.034;2023-08-01T04:24:21;94619.00;;;15.21;100.00
7990;BME280;4040;42.848;23.034;2023-08-01T04:30:12;94604.91;;;15.50;100.00
7990;BME280;4040;42.848;23.034;2023-08-01T04:36:01;94606.41;;;15.98;100.00
7990;BME280;4040;42.848;23.034;2023-08-01T04:41:51;94597.97;;;16.60;100.00
7990;BME280;4040;42.848;23.034;2023-08-01T04:47:40;94604.56;;;18.26;100.00
7990;BME280;4040;42.848;23.034;2023-08-01T04:53:29;94580.19;;;21.16;100.00
7990;BME280;4040;42.848;23.034;2023-08-01T04:59:19;94572.88;;;21.62;100.00
7990;BME280;4040;42.848;23.034;2023-08-01T05:05:08;94595.31;;;23.68;100.00
7990;BME280;4040;42.848;23.034;2023-08-01T05:10:56;94577.59;;;25.96;85.22
7990;BME280;4040;42.848;23.034;2023-08-01T05:16:47;94575.34;;;24.95;89.47
7990;BME280;4040;42.848;23.034;2023-08-01T05:26:57;94587.25;;;27.27;74.51
7990;BME280;4040;42.848;23.034;2023-08-01T05:32:47;94593.94;;;28.01;66.41
7990;BME280;4040;42.848;23.034;2023-08-01T05:38:36;94579.69;;;26.41;69.84
7990;BME280;4040;42.848;23.034;2023-08-01T05:44:25;94571.34;;;25.68;78.39
7990;BME280;4040;42.848;23.034;2023-08-01T05:50:15;94573.88;;;26.55;76.57
7990;BME280;4040;42.848;23.034;2023-08-01T05:56:04;94574.66;;;28.14;67.29
7990;BME280;4040;42.848;23.034;2023-08-01T06:01:53;94568.41;;;28.32;61.02
7990;BME280;4040;42.848;23.034;2023-08-01T06:07:43;94570.16;;;28.72;59.37
7990;BME280;4040;42.848;23.034;2023-08-01T06:13:32;94557.56;;;29.58;57.32
7990;BME280;4040;42.848;23.034;2023-08-01T06:19:21;94572.63;;;31.39;56.14
7990;BME280;4040;42.848;23.034;2023-08-01T06:29:32;94565.28;;;30.82;50.95
7990;BME280;4040;42.848;23.034;2023-08-01T06:35:22;94554.97;;;30.56;48.58
7990;BME280;4040;42.848;23.034;2023-08-01T06:41:10;94545.47;;;31.73;46.35
7990;BME280;4040;42.848;23.034;2023-08-01T06:47:01;94554.63;;;32.64;44.82
7990;BME280;4040;42.848;23.034;2023-08-01T06:52:49;94545.78;;;32.73;45.91
7990;BME280;4040;42.848;23.034;2023-08-01T06:58:38;94538.59;;;32.57;42.39
7990;BME280;4040;42.848;23.034;2023-08-01T07:04:28;94535.53;;;33.41;38.27
7990;BME280;4040;42.848;23.034;2023-08-01T07:10:17;94531.94;;;33.18;39.63
7990;BME280;4040;42.848;23.034;2023-08-01T07:16:06;94518.59;;;34.29;40.38
7990;BME280;4040;42.848;23.034;2023-08-01T07:21:57;94518.06;;;34.23;38.90
7990;BME280;4040;42.848;23.034;2023-08-01T07:32:07;94525.88;;;36.24;34.30
7990;BME280;4040;42.848;23.034;2023-08-01T07:37:57;94521.66;;;35.74;34.27
7990;BME280;4040;42.848;23.034;2023-08-01T07:43:46;94518.03;;;35.81;34.86
7990;BME280;4040;42.848;23.034;2023-08-01T07:49:35;94505.81;;;37.75;33.58
7990;BME280;4040;42.848;23.034;2023-08-01T07:55:26;94511.63;;;37.24;34.01
7990;BME280;4040;42.848;23.034;2023-08-01T08:01:15;94507.13;;;37.74;32.06
7990;BME280;4040;42.848;23.034;2023-08-01T08:07:04;94490.91;;;38.55;29.68
7990;BME280;4040;42.848;23.034;2023-08-01T08:12:54;94489.88;;;39.48;28.75
7990;BME280;4040;42.848;23.034;2023-08-01T08:18:43;94487.28;;;38.17;31.61
7990;BME280;4040;42.848;23.034;2023-08-01T08:31:04;94483.22;;;39.83;28.20
7990;BME280;4040;42.848;23.034;2023-08-01T08:36:53;94469.84;;;40.14;29.06
7990;BME280;4040;42.848;23.034;2023-08-01T08:42:43;94469.44;;;40.50;28.79
7990;BME280;4040;42.848;23.034;2023-08-01T08:48:35;94467.06;;;40.68;28.10
7990;BME280;4040;42.848;23.034;2023-08-01T08:54:25;94454.25;;;40.34;27.38
7990;BME280;4040;42.848;23.034;2023-08-01T09:00:15;94454.34;;;41.22;27.42
7990;BME280;4040;42.848;23.034;2023-08-01T09:06:09;94451.00;;;38.31;29.19
7990;BME280;4040;42.848;23.034;2023-08-01T09:12:00;94438.31;;;38.48;28.37
7990;BME280;4040;42.848;23.034;2023-08-01T09:17:49;94434.44;;;39.62;29.30
7990;BME280;4040;42.848;23.034;2023-08-01T09:23:39;94430.72;;;38.23;28.43
7990;BME280;4040;42.848;23.034;2023-08-01T09:29:28;94429.56;;;38.45;30.47
7990;BME280;4040;42.848;23.034;2023-08-01T09:35:18;94431.09;;;37.72;30.62
7990;BME280;4040;42.848;23.034;2023-08-01T09:41:16;94431.91;;;37.19;32.08
7990;BME280;4040;42.848;23.034;2023-08-01T09:47:05;94417.91;;;37.65;31.14
7990;BME280;4040;42.848;23.034;2023-08-01T09:52:55;94419.09;;;37.81;29.74
7990;BME280;4040;42.848;23.034;2023-08-01T09:58:46;94397.41;;;38.10;30.17
7990;BME280;4040;42.848;23.034;2023-08-01T10:04:36;94393.84;;;38.19;31.60
7990;BME280;4040;42.848;23.034;2023-08-01T10:10:25;94386.09;;;36.64;32.83
7990;BME280;4040;42.848;23.034;2023-08-01T10:16:15;94377.88;;;37.02;30.91
7990;BME280;4040;42.848;23.034;2023-08-01T10:22:06;94385.41;;;35.37;30.57
7990;BME280;4040;42.848;23.034;2023-08-01T10:31:38;94358.69;;;37.08;27.97
7990;BME280;4040;42.848;23.034;2023-08-01T10:37:27;94360.91;;;35.96;29.99
7990;BME280;4040;42.848;23.034;2023-08-01T10:43:19;94351.06;;;36.91;28.83
7990;BME280;4040;42.848;23.034;2023-08-01T10:49:10;94332.84;;;36.83;29.46
7990;BME280;4040;42.848;23.034;2023-08-01T10:55:00;94332.00;;;36.37;30.81
7990;BME280;4040;42.848;23.034;2023-08-01T11:00:57;94296.34;;;33.44;32.63
7990;BME280;4040;42.848;23.034;2023-08-01T11:06:49;94317.72;;;32.29;34.64
7990;BME280;4040;42.848;23.034;2023-08-01T11:12:39;94314.78;;;31.21;32.64
7990;BME280;4040;42.848;23.034;2023-08-01T11:18:28;94296.97;;;30.96;37.19
7990;BME280;4040;42.848;23.034;2023-08-01T11:24:19;94297.91;;;30.98;37.48
7990;BME280;4040;42.848;23.034;2023-08-01T11:34:10;94285.31;;;30.36;34.11
7990;BME280;4040;42.848;23.034;2023-08-01T11:40:01;94285.78;;;30.27;35.83
7990;BME280;4040;42.848;23.034;2023-08-01T11:45:51;94268.59;;;30.69;35.00
7990;BME280;4040;42.848;23.034;2023-08-01T11:51:42;94260.84;;;30.75;36.40
7990;BME280;4040;42.848;23.034;2023-08-01T11:57:33;94257.34;;;30.75;34.38
7990;BME280;4040;42.848;23.034;2023-08-01T12:03:22;94254.00;;;30.15;36.44
7990;BME280;4040;42.848;23.034;2023-08-01T12:09:11;94256.44;;;30.39;37.70
7990;BME280;4040;42.848;23.034;2023-08-01T12:15:02;94248.19;;;30.67;36.38
7990;BME280;4040;42.848;23.034;2023-08-01T12:20:52;94243.31;;;30.60;38.70
7990;BME280;4040;42.848;23.034;2023-08-01T12:26:41;94244.25;;;30.42;36.39
7990;BME280;4040;42.848;23.034;2023-08-01T12:36:53;94226.91;;;30.08;35.63
7990;BME280;4040;42.848;23.034;2023-08-01T12:42:41;94215.38;;;30.45;37.73
7990;BME280;4040;42.848;23.034;2023-08-01T12:48:30;94209.47;;;30.48;35.86
7990;BME280;4040;42.848;23.034;2023-08-01T12:54:20;94200.81;;;30.52;35.70
7990;BME280;4040;42.848;23.034;2023-08-01T13:00:09;94203.97;;;30.56;36.64
7990;BME280;4040;42.848;23.034;2023-08-01T13:05:58;94178.72;;;30.46;36.70
7990;BME280;4040;42.848;23.034;2023-08-01T13:11:48;94179.97;;;30.66;36.06
7990;BME280;4040;42.848;23.034;2023-08-01T13:17:37;94190.69;;;30.90;38.27
7990;BME280;4040;42.848;23.034;2023-08-01T13:23:26;94185.72;;;30.96;36.31
7990;BME280;4040;42.848;23.034;2023-08-01T13:29:16;94168.72;;;31.07;35.67
7990;BME280;4040;42.848;23.034;2023-08-01T13:39:26;94159.22;;;31.38;36.06
7990;BME280;4040;42.848;23.034;2023-08-01T13:45:17;94152.31;;;31.24;35.43
7990;BME280;4040;42.848;23.034;2023-08-01T13:51:06;94145.69;;;31.42;35.13
7990;BME280;4040;42.848;23.034;2023-08-01T13:56:54;94143.59;;;31.27;35.46
7990;BME280;4040;42.848;23.034;2023-08-01T14:02:45;94137.66;;;31.31;36.35
7990;BME280;4040;42.848;23.034;2023-08-01T14:08:33;94120.50;;;31.12;37.43
7990;BME280;4040;42.848;23.034;2023-08-01T14:14:22;94136.88;;;31.23;36.97
7990;BME280;4040;42.848;23.034;2023-08-01T14:20:13;94136.13;;;31.15;37.14
7990;BME280;4040;42.848;23.034;2023-08-01T14:26:01;94131.63;;;31.12;37.42
7990;BME280;4040;42.848;23.034;2023-08-01T14:31:50;94131.44;;;31.10;36.51
7990;BME280;4040;42.848;23.034;2023-08-01T14:42:03;94121.97;;;31.56;38.56
7990;BME280;4040;42.848;23.034;2023-08-01T14:47:51;94100.66;;;31.66;36.28
7990;BME280;4040;42.848;23.034;2023-08-01T14:53:40;94101.50;;;31.38;36.47
7990;BME280;4040;42.848;23.034;2023-08-01T14:59:31;94095.59;;;30.99;36.41
7990;BME280;4040;42.848;23.034;2023-08-01T15:05:19;94090.78;;;30.56;37.24
7990;BME280;4040;42.848;23.034;2023-08-01T15:11:08;94068.03;;;30.30;37.19
7990;BME280;4040;42.848;23.034;2023-08-01T15:16:58;94070.69;;;30.43;37.29
7990;BME280;4040;42.848;23.034;2023-08-01T15:22:47;94080.81;;;30.33;37.78
7990;BME280;4040;42.848;23.034;2023-08-01T15:28:35;94082.09;;;30.60;37.13
7990;BME280;4040;42.848;23.034;2023-08-01T15:34:26;94070.97;;;30.60;37.52
7990;BME280;4040;42.848;23.034;2023-08-01T15:44:36;94072.59;;;30.91;38.57
7990;BME280;4040;42.848;23.034;2023-08-01T15:50:27;94076.13;;;30.56;38.17
7990;BME280;4040;42.848;23.034;2023-08-01T15:56:16;94064.44;;;30.22;39.43
7990;BME280;4040;42.848;23.034;2023-08-01T16:02:05;94062.91;;;29.93;39.00
7990;BME280;4040;42.848;23.034;2023-08-01T16:07:55;94071.84;;;29.99;39.06
7990;BME280;4040;42.848;23.034;2023-08-01T16:13:44;94078.66;;;29.98;40.49
7990;BME280;4040;42.848;23.034;2023-08-01T16:19:32;94072.38;;;30.18;37.55
7990;BME280;4040;42.848;23.034;2023-08-01T16:25:23;94073.31;;;30.20;40.09
7990;BME280;4040;42.848;23.034;2023-08-01T16:31:12;94075.03;;;30.03;39.67
7990;BME280;4040;42.848;23.034;2023-08-01T16:37:01;94073.81;;;29.91;40.14
7990;BME280;4040;42.848;23.034;2023-08-01T16:47:14;94084.00;;;29.68;42.07
7990;BME280;4040;42.848;23.034;2023-08-01T16:53:03;94085.69;;;29.17;43.30
7990;BME280;4040;42.848;23.034;2023-08-01T16:58:52;94095.72;;;28.61;44.24
7990;BME280;4040;42.848;23.034;2023-08-01T17:04:43;94093.50;;;28.33;43.95
7990;BME280;4040;42.848;23.034;2023-08-01T17:10:34;94099.19;;;27.96;45.51
7990;BME280;4040;42.848;23.034;2023-08-01T17:16:22;94109.53;;;27.64;46.40
7990;BME280;4040;42.848;23.034;2023-08-01T17:22:13;94108.06;;;27.13;48.58
7990;BME280;4040;42.848;23.034;2023-08-01T17:28:01;94102.97;;;26.99;49.45
7990;BME280;4040;42.848;23.034;2023-08-01T17:33:50;94099.22;;;26.59;50.24
7990;BME280;4040;42.848;23.034;2023-08-01T17:39:41;94117.41;;;26.49;50.86
7990;BME280;4040;42.848;23.034;2023-08-01T17:49:52;94121.06;;;25.86;58.42
7990;BME280;4040;42.848;23.034;2023-08-01T17:55:42;94120.06;;;25.30;62.65
7990;BME280;4040;42.848;23.034;2023-08-01T18:01:31;94126.88;;;25.12;67.98
7990;BME280;4040;42.848;23.034;2023-08-01T18:07:21;94138.03;;;24.90;78.63
7990;BME280;4040;42.848;23.034;2023-08-01T18:13:22;94133.97;;;24.45;91.73
7990;BME280;4040;42.848;23.034;2023-08-01T18:19:11;94133.13;;;23.88;100.00
7990;BME280;4040;42.848;23.034;2023-08-01T18:24:59;94148.63;;;23.58;100.00
7990;BME280;4040;42.848;23.034;2023-08-01T18:30:49;94157.63;;;23.42;100.00
7990;BME280;4040;42.848;23.034;2023-08-01T18:36:38;94164.44;;;22.77;100.00
7990;BME280;4040;42.848;23.034;2023-08-01T18:42:27;94166.88;;;22.53;100.00
7990;BME280;4040;42.848;23.034;2023-08-01T18:52:39;94180.66;;;22.22;100.00
7990;BME280;4040;42.848;23.034;2023-08-01T18:58:28;94189.75;;;21.97;100.00
7990;BME280;4040;42.848;23.034;2023-08-01T19:04:17;94198.41;;;21.90;100.00
7990;BME280;4040;42.848;23.034;2023-08-01T19:10:08;94198.94;;;21.94;100.00
7990;BME280;4040;42.848;23.034;2023-08-01T19:15:58;94203.06;;;21.79;100.00
7990;BME280;4040;42.848;23.034;2023-08-01T19:21:47;94198.56;;;21.76;100.00
7990;BME280;4040;42.848;23.034;2023-08-01T19:27:37;94206.22;;;21.66;100.00
7990;BME280;4040;42.848;23.034;2023-08-01T19:33:25;94214.03;;;21.53;100.00
7990;BME280;4040;42.848;23.034;2023-08-01T19:39:14;94208.59;;;21.28;100.00
7990;BME280;4040;42.848;23.034;2023-08-01T19:45:05;94207.19;;;21.12;100.00
7990;BME280;4040;42.848;23.034;2023-08-01T19:55:16;94214.38;;;21.10;100.00
7990;BME280;4040;42.848;23.034;2023-08-01T20:01:06;94216.75;;;20.97;100.00
7990;BME280;4040;42.848;23.034;2023-08-01T20:06:55;94211.72;;;20.95;100.00
7990;BME280;4040;42.848;23.034;2023-08-01T20:12:43;94213.63;;;20.69;100.00
7990;BME280;4040;42.848;23.034;2023-08-01T20:18:33;94204.28;;;20.56;100.00
7990;BME280;4040;42.848;23.034;2023-08-01T20:24:22;94220.75;;;20.42;100.00
7990;BME280;4040;42.848;23.034;2023-08-01T20:30:11;94222.13;;;20.32;100.00
7990;BME280;4040;42.848;23.034;2023-08-01T20:36:01;94222.38;;;20.14;100.00
7990;BME280;4040;42.848;23.034;2023-08-01T20:41:50;94232.00;;;19.95;100.00
7990;BME280;4040;42.848;23.034;2023-08-01T20:47:39;94226.34;;;19.84;100.00
7990;BME280;4040;42.848;23.034;2023-08-01T20:57:51;94235.78;;;19.83;100.00
7990;BME280;4040;42.848;23.034;2023-08-01T21:03:40;94227.88;;;19.70;100.00
7990;BME280;4040;42.848;23.034;2023-08-01T21:09:29;94226.97;;;19.73;100.00
7990;BME280;4040;42.848;23.034;2023-08-01T21:15:19;94235.81;;;19.68;100.00
7990;BME280;4040;42.848;23.034;2023-08-01T21:21:11;94239.19;;;19.20;100.00
7990;BME280;4040;42.848;23.034;2023-08-01T21:27:00;94229.38;;;19.13;100.00
7990;BME280;4040;42.848;23.034;2023-08-01T21:32:50;94233.16;;;19.16;100.00
7990;BME280;4040;42.848;23.034;2023-08-01T21:38:38;94229.09;;;18.97;100.00
7990;BME280;4040;42.848;23.034;2023-08-01T21:44:27;94229.28;;;18.70;100.00
7990;BME280;4040;42.848;23.034;2023-08-01T21:50:17;94228.34;;;18.35;100.00
7990;BME280;4040;42.848;23.034;2023-08-01T22:08:28;94231.13;;;18.49;100.00
7990;BME280;4040;42.848;23.034;2023-08-01T22:14:16;94235.31;;;18.36;100.00
7990;BME280;4040;42.848;23.034;2023-08-01T22:20:07;94242.00;;;18.26;100.00
7990;BME280;4040;42.848;23.034;2023-08-01T22:25:58;94238.25;;;17.91;100.00
7990;BME280;4040;42.848;23.034;2023-08-01T22:31:46;94238.97;;;17.68;100.00
7990;BME280;4040;42.848;23.034;2023-08-01T22:37:35;94244.31;;;17.86;100.00
7990;BME280;4040;42.848;23.034;2023-08-01T22:43:26;94240.53;;;18.16;100.00
7990;BME280;4040;42.848;23.034;2023-08-01T22:49:14;94253.53;;;18.21;100.00
7990;BME280;4040;42.848;23.034;2023-08-01T22:55:04;94243.28;;;17.84;100.00
7990;BME280;4040;42.848;23.034;2023-08-01T23:00:55;94254.47;;;17.86;100.00
7990;BME280;4040;42.848;23.034;2023-08-01T23:11:06;94240.97;;;17.91;100.00
7990;BME280;4040;42.848;23.034;2023-08-01T23:16:56;94246.59;;;17.88;100.00
7990;BME280;4040;42.848;23.034;2023-08-01T23:22:44;94244.72;;;17.93;100.00
7990;BME280;4040;42.848;23.034;2023-08-01T23:28:33;94256.31;;;18.12;100.00
7990;BME280;4040;42.848;23.034;2023-08-01T23:34:23;94255.56;;;18.11;100.00
7990;BME280;4040;42.848;23.034;2023-08-01T23:40:12;94258.41;;;17.85;100.00
7990;BME280;4040;42.848;23.034;2023-08-01T23:46:01;94269.91;;;17.80;100.00
7990;BME280;4040;42.848;23.034;2023-08-01T23:51:51;94267.84;;;17.66;100.00
7990;BME280;4040;42.848;23.034;2023-08-01T23:57:41;94275.59;;;17.58;100.00
